createdAt,value
2022-08-02T00:03:24.906Z,20.48
2022-08-02T00:08:27.753Z,20.45
2022-08-02T00:13:29.589Z,20.48
2022-08-02T00:18:31.462Z,20.44
2022-08-02T00:23:33.147Z,20.46
2022-08-02T00:28:54.926Z,20.54
2022-08-02T00:34:05.772Z,20.62
2022-08-02T00:39:35.149Z,20.69
2022-08-02T00:44:38.042Z,20.71
2022-08-02T00:49:39.865Z,20.72
2022-08-02T00:54:41.850Z,20.61
2022-08-02T00:59:43.565Z,20.62
2022-08-02T01:04:45.272Z,20.67
2022-08-02T01:09:46.974Z,20.64
2022-08-02T01:14:51.130Z,20.52
2022-08-02T01:19:55.692Z,20.34
2022-08-02T01:25:31.125Z,20.21
2022-08-02T01:30:35.945Z,20.08
2022-08-02T01:35:50.670Z,20.14
2022-08-02T01:40:55.646Z,20.24
2022-08-02T01:46:00.021Z,20.31
2022-08-02T01:51:03.046Z,20.36
2022-08-02T01:56:07.504Z,20.33
2022-08-02T02:01:16.017Z,20.31
2022-08-02T02:06:22.971Z,20.29
2022-08-02T02:12:11.661Z,20.17
2022-08-02T02:16:48.304Z,20.12
2022-08-02T02:21:50.363Z,20.06
2022-08-02T02:26:52.832Z,19.92
2022-08-02T02:31:55.654Z,19.92
2022-08-02T02:36:59.420Z,19.83
2022-08-02T02:42:04.336Z,19.90
2022-08-02T02:47:07.409Z,19.66
2022-08-02T02:52:10.529Z,19.51
2022-08-02T02:57:13.317Z,19.42
2022-08-02T03:02:15.410Z,19.48
2022-08-02T03:07:17.468Z,19.66
2022-08-02T03:12:19.977Z,19.74
2022-08-02T03:17:21.800Z,19.65
2022-08-02T03:22:23.453Z,19.50
2022-08-02T03:27:25.175Z,19.45
2022-08-02T03:32:27.322Z,19.49
2022-08-02T03:37:30.557Z,19.57
2022-08-02T03:42:32.238Z,19.58
2022-08-02T03:47:34.410Z,19.38
2022-08-02T03:52:36.862Z,19.38
2022-08-02T03:57:40.038Z,19.43
2022-08-02T04:02:41.798Z,19.38
2022-08-02T04:08:33.740Z,19.29
2022-08-02T04:13:05.467Z,19.20
2022-08-02T04:18:08.748Z,19.11
2022-08-02T04:23:13.778Z,19.22
2022-08-02T04:28:18.367Z,19.29
2022-08-02T04:33:20.955Z,19.37
2022-08-02T04:38:22.758Z,19.47
2022-08-02T04:43:24.914Z,19.50
2022-08-02T04:48:26.582Z,19.57
2022-08-02T04:53:28.294Z,19.58
2022-08-02T04:58:45.332Z,19.22
2022-08-02T05:03:47.060Z,19.11
2022-08-02T05:08:53.270Z,19.27
2022-08-02T05:13:57.992Z,19.45
2022-08-02T05:19:02.342Z,19.55
2022-08-02T05:24:05.349Z,19.64
2022-08-02T05:29:07.131Z,19.67
2022-08-02T05:34:11.960Z,19.59
2022-08-02T05:39:19.073Z,19.65
2022-08-02T05:44:21.416Z,19.66
2022-08-02T05:49:23.251Z,19.72
2022-08-02T05:54:44.486Z,19.81
2022-08-02T06:00:06.548Z,19.96
2022-08-02T06:05:17.205Z,20.02
2022-08-02T06:10:21.409Z,20.07
2022-08-02T06:15:23.202Z,20.07
2022-08-02T06:20:27.034Z,20.13
2022-08-02T06:25:49.882Z,20.32
2022-08-02T06:30:51.409Z,20.38
2022-08-02T06:36:19.330Z,20.55
2022-08-02T06:41:24.442Z,20.67
2022-08-02T06:47:08.206Z,20.77
2022-08-02T06:51:48.199Z,20.89
2022-08-02T06:56:49.986Z,20.99
2022-08-02T07:01:51.840Z,21.06
2022-08-02T07:06:53.701Z,21.11
2022-08-02T07:11:55.766Z,21.24
2022-08-02T07:16:58.303Z,21.40
2022-08-02T07:22:02.518Z,21.46
2022-08-02T07:27:12.567Z,21.47
2022-08-02T07:32:16.585Z,21.58
2022-08-02T07:37:35.942Z,21.74
2022-08-02T07:42:40.480Z,21.84
2022-08-02T07:47:43.912Z,21.95
2022-08-02T07:52:46.177Z,22.12
2022-08-02T07:57:47.992Z,22.22
2022-08-02T08:02:49.690Z,22.33
2022-08-02T08:07:52.202Z,22.45
2022-08-02T08:12:55.222Z,22.62
2022-08-02T08:17:57.067Z,22.80
2022-08-02T08:22:59.491Z,22.89
2022-08-02T08:28:01.299Z,23.06
2022-08-02T08:33:03.034Z,23.33
2022-08-02T08:38:07.853Z,23.43
2022-08-02T08:43:13.771Z,23.59
2022-08-02T08:48:21.808Z,23.80
2022-08-02T08:53:39.977Z,24.06
2022-08-02T08:58:45.036Z,24.22
2022-08-02T09:03:47.033Z,24.43
2022-08-02T09:08:48.872Z,24.54
2022-08-02T09:13:58.918Z,24.74
2022-08-02T09:19:16.524Z,24.86
2022-08-02T09:24:23.347Z,25.09
2022-08-02T09:29:26.202Z,25.24
2022-08-02T09:34:43.775Z,25.47
2022-08-02T09:39:47.545Z,25.52
2022-08-02T09:45:00.009Z,25.59
2022-08-02T09:50:01.939Z,25.70
2022-08-02T09:55:06.832Z,25.85
2022-08-02T10:00:15.068Z,25.96
2022-08-02T10:05:21.009Z,26.23
2022-08-02T10:10:24.343Z,26.22
2022-08-02T10:15:27.619Z,26.40
2022-08-02T10:20:32.971Z,26.54
2022-08-02T10:25:38.103Z,26.50
2022-08-02T10:30:43.720Z,26.51
2022-08-02T10:35:50.408Z,26.73
2022-08-02T10:41:08.695Z,26.96
2022-08-02T10:46:29.334Z,27.01
2022-08-02T10:52:02.603Z,27.16
2022-08-02T10:57:15.501Z,27.26
2022-08-02T11:02:47.077Z,27.33
2022-08-02T11:07:50.100Z,27.36
2022-08-02T11:12:58.586Z,27.37
2022-08-02T11:18:00.341Z,27.52
2022-08-02T11:23:44.723Z,27.77
2022-08-02T11:28:50.713Z,27.87
2022-08-02T11:33:53.100Z,27.95
2022-08-02T11:39:15.811Z,28.16
2022-08-02T11:44:18.813Z,28.34
2022-08-02T11:49:25.145Z,28.50
2022-08-02T11:54:32.069Z,28.77
2022-08-02T11:59:39.023Z,28.90
2022-08-02T12:04:41.551Z,29.06
2022-08-02T12:09:45.867Z,29.14
2022-08-02T12:14:47.683Z,29.09
2022-08-02T12:19:49.398Z,29.39
2022-08-02T12:24:53.519Z,29.30
2022-08-02T12:30:16.003Z,29.41
2022-08-02T12:35:26.762Z,29.48
2022-08-02T12:40:32.998Z,29.59
2022-08-02T12:46:01.452Z,29.92
2022-08-02T12:51:24.553Z,30.10
2022-08-02T12:56:33.607Z,30.03
2022-08-02T13:01:36.379Z,30.09
2022-08-02T13:06:45.728Z,30.15
2022-08-02T13:11:47.741Z,30.27
2022-08-02T13:16:49.653Z,30.40
2022-08-02T13:22:01.056Z,30.37
2022-08-02T13:27:05.192Z,30.48
2022-08-02T13:32:10.648Z,30.36
2022-08-02T13:37:12.861Z,30.65
2022-08-02T13:42:16.063Z,30.47
2022-08-02T13:47:26.778Z,30.52
2022-08-02T13:52:38.351Z,30.42
2022-08-02T13:57:40.087Z,30.53
2022-08-02T14:02:43.143Z,30.46
2022-08-02T14:07:45.049Z,30.50
2022-08-02T14:12:46.853Z,30.73
2022-08-02T14:17:58.294Z,30.83
2022-08-02T14:23:00.034Z,30.74
2022-08-02T14:28:02.826Z,30.97
2022-08-02T14:33:04.762Z,31.22
2022-08-02T14:38:06.742Z,31.17
2022-08-02T14:43:08.451Z,31.06
2022-08-02T14:48:11.329Z,31.12
2022-08-02T14:53:13.272Z,30.97
2022-08-02T14:58:14.971Z,31.07
2022-08-02T15:03:16.718Z,30.94
2022-08-02T15:08:18.570Z,30.85
2022-08-02T15:13:20.323Z,31.08
2022-08-02T15:18:22.956Z,31.32
2022-08-02T15:23:38.437Z,31.41
2022-08-02T15:28:40.499Z,31.18
2022-08-02T15:33:44.163Z,31.21
2022-08-02T15:38:45.839Z,31.48
2022-08-02T15:44:01.045Z,31.34
2022-08-02T15:49:03.265Z,31.23
2022-08-02T15:54:05.167Z,31.69
2022-08-02T15:59:06.941Z,31.71
2022-08-02T16:04:09.002Z,31.34
2022-08-02T16:09:10.926Z,31.52
2022-08-02T16:14:12.581Z,31.65
2022-08-02T16:19:47.734Z,31.77
2022-08-02T16:24:36.887Z,31.72
2022-08-02T16:29:38.658Z,31.98
2022-08-02T16:35:07.143Z,31.64
2022-08-02T16:40:02.278Z,31.18
2022-08-02T16:45:04.990Z,31.25
2022-08-02T16:50:10.543Z,31.14
2022-08-02T16:55:12.428Z,30.84
2022-08-02T17:00:15.511Z,30.59
2022-08-02T17:05:17.938Z,30.36
2022-08-02T17:10:19.681Z,30.24
2022-08-02T17:16:16.373Z,30.14
2022-08-02T17:20:44.934Z,29.88
2022-08-02T17:25:52.360Z,29.66
2022-08-02T17:30:54.198Z,29.75
2022-08-02T17:35:56.375Z,30.04
2022-08-02T17:40:58.759Z,30.19
2022-08-02T17:46:02.396Z,30.16
2022-08-02T17:51:04.570Z,30.05
2022-08-02T17:56:06.382Z,30.04
2022-08-02T18:01:23.469Z,30.01
2022-08-02T18:06:26.142Z,29.87
2022-08-02T18:16:50.792Z,28.87
2022-08-02T18:21:52.732Z,28.14
2022-08-02T18:26:56.699Z,27.21
2022-08-02T18:31:58.569Z,26.60
2022-08-02T18:37:00.217Z,26.14
2022-08-02T18:42:01.993Z,25.70
2022-08-02T18:47:03.819Z,25.28
2022-08-02T18:52:05.919Z,24.91
2022-08-02T18:58:16.652Z,24.68
2022-08-02T19:02:31.206Z,24.35
2022-08-02T19:07:49.827Z,24.12
2022-08-02T19:12:53.172Z,23.79
2022-08-02T19:17:58.077Z,23.67
2022-08-02T19:23:02.819Z,23.48
2022-08-02T19:28:05.444Z,23.35
2022-08-02T19:33:10.615Z,23.10
2022-08-02T19:38:26.810Z,23.08
2022-08-02T19:44:23.106Z,23.06
2022-08-02T19:48:51.559Z,22.94
2022-08-02T19:53:53.301Z,22.79
2022-08-02T19:58:57.677Z,22.70
2022-08-02T20:03:59.674Z,22.62
2022-08-02T20:09:02.283Z,22.50
2022-08-02T20:14:05.242Z,22.28
2022-08-02T20:19:09.989Z,22.18
2022-08-02T20:24:11.949Z,22.07
2022-08-02T20:29:14.001Z,21.83
2022-08-02T20:34:15.813Z,21.77
2022-08-02T20:39:20.325Z,21.82
2022-08-02T20:44:31.021Z,21.78
2022-08-02T20:49:40.841Z,21.59
2022-08-02T20:54:43.693Z,21.53
2022-08-02T20:59:51.974Z,21.47
2022-08-02T21:04:53.841Z,21.33
2022-08-02T21:09:55.530Z,21.19
2022-08-02T21:14:57.377Z,21.09
2022-08-02T21:20:01.507Z,21.13
2022-08-02T21:25:03.502Z,21.13
2022-08-02T21:30:11.529Z,20.96
2022-08-02T21:35:13.453Z,20.89
2022-08-02T21:40:15.422Z,20.89
2022-08-02T21:45:20.145Z,20.92
2022-08-02T21:50:22.107Z,20.91
2022-08-02T21:55:24.027Z,20.78
2022-08-02T22:00:28.565Z,21.18
2022-08-02T22:05:37.221Z,21.15
2022-08-02T22:10:58.007Z,20.93
2022-08-02T22:16:04.278Z,20.84
2022-08-02T22:21:14.236Z,20.70
2022-08-02T22:26:19.611Z,20.65
2022-08-02T22:31:40.577Z,20.52
2022-08-02T22:36:44.530Z,20.49
2022-08-02T22:42:05.381Z,20.57
2022-08-02T22:47:14.609Z,20.48
2022-08-02T22:52:20.192Z,20.48
2022-08-02T22:57:30.361Z,20.19
2022-08-02T22:58:43.501Z,29.52
2022-08-02T23:02:33.296Z,20.24
2022-08-02T23:07:37.004Z,20.24
2022-08-02T23:12:41.019Z,20.27
2022-08-02T23:18:01.476Z,20.22
2022-08-02T23:23:03.256Z,20.19
2022-08-02T23:28:13.438Z,19.93
2022-08-02T23:33:15.205Z,19.84
2022-08-02T23:38:17.198Z,19.88
2022-08-02T23:43:18.901Z,19.80
2022-08-02T23:48:20.917Z,19.60
2022-08-02T23:53:22.630Z,19.71
2022-08-02T23:58:24.544Z,19.57
